Terminal Aerodrome Forecast
Issued by NWS Cleveland, OH

Home | Current Version | Previous Version | Text Only | Print | Product List | Glossary Off
Versions: 1 2 3 4 5 6 7 8 9 10 11 12 13 14 15 16 17 18 19 20 21

234
FTUS41 KCLE 160311 AAB
TAFCAK
TAF AMD
KCAK 160311Z 1603/1624 20010KT 6SM -SN BKN025
      TEMPO 1603/1607 P6SM OVC040
     FM160700 23007KT P6SM BKN025
     FM161200 24007KT P6SM BKN025
      TEMPO 1613/1617 SCT025=

USA.gov is the U.S. government's official web portal to all federal, state and local government web resources and services.